createdAt,value
2023-01-21T00:01:09.223Z,1.53
2023-01-21T00:03:36.985Z,1.49
2023-01-21T00:06:05.364Z,1.45
2023-01-21T00:08:33.364Z,1.45
2023-01-21T00:11:06.005Z,1.43
2023-01-21T00:13:36.388Z,1.40
2023-01-21T00:16:04.258Z,1.39
2023-01-21T00:18:31.891Z,1.36
2023-01-21T00:20:59.533Z,1.35
2023-01-21T00:23:28.203Z,1.36
2023-01-21T00:25:58.634Z,1.37
2023-01-21T00:28:28.852Z,1.37
2023-01-21T00:30:59.307Z,1.38
2023-01-21T00:33:27.088Z,1.33
2023-01-21T00:35:59.674Z,1.26
2023-01-21T00:38:27.254Z,1.24
2023-01-21T00:41:00.365Z,1.21
2023-01-21T00:43:28.405Z,1.20
2023-01-21T00:45:56.034Z,1.13
2023-01-21T00:48:25.726Z,1.10
2023-01-21T00:50:55.766Z,1.07
2023-01-21T00:53:24.087Z,0.99
2023-01-21T00:55:51.668Z,1.00
2023-01-21T00:58:19.446Z,1.02
2023-01-21T01:00:47.088Z,0.99
2023-01-21T01:03:14.679Z,0.99
2023-01-21T01:05:43.576Z,1.05
2023-01-21T01:08:11.140Z,1.05
2023-01-21T01:10:38.683Z,1.00
2023-01-21T01:13:06.311Z,1.01
2023-01-21T01:15:33.911Z,1.01
2023-01-21T01:18:01.449Z,0.96
2023-01-21T01:20:29.335Z,0.98
2023-01-21T01:22:58.254Z,0.95
2023-01-21T01:25:25.965Z,0.86
2023-01-21T01:27:53.474Z,0.77
2023-01-21T01:30:21.283Z,0.78
2023-01-21T01:32:48.875Z,0.84
2023-01-21T01:35:16.699Z,0.84
2023-01-21T01:37:44.293Z,0.85
2023-01-21T01:40:14.713Z,0.83
2023-01-21T01:42:42.412Z,0.81
2023-01-21T01:45:20.104Z,0.80
2023-01-21T01:47:58.042Z,0.77
2023-01-21T01:50:29.786Z,0.72
2023-01-21T01:53:00.110Z,0.75
2023-01-21T01:55:29.993Z,0.70
2023-01-21T01:57:58.703Z,0.67
2023-01-21T02:00:27.125Z,0.64
2023-01-21T02:03:13.097Z,0.62
2023-01-21T02:05:42.963Z,0.57
2023-01-21T02:08:11.815Z,0.57
2023-01-21T02:10:41.107Z,0.59
2023-01-21T02:13:08.859Z,0.61
2023-01-21T02:15:41.967Z,0.57
2023-01-21T02:18:18.723Z,0.62
2023-01-21T02:21:12.581Z,0.62
2023-01-21T02:24:00.432Z,0.68
2023-01-21T02:27:06.496Z,0.70
2023-01-21T02:30:01.201Z,0.69
2023-01-21T02:33:04.879Z,0.73
2023-01-21T02:35:42.155Z,0.75
2023-01-21T02:38:20.282Z,0.82
2023-01-21T02:40:57.740Z,0.82
2023-01-21T02:43:33.376Z,0.77
2023-01-21T02:46:07.602Z,0.76
2023-01-21T02:48:40.400Z,0.75
2023-01-21T02:51:09.399Z,0.71
2023-01-21T02:53:38.215Z,0.73
2023-01-21T02:56:09.927Z,0.83
2023-01-21T02:58:43.329Z,0.90
2023-01-21T03:01:21.769Z,0.93
2023-01-21T03:04:23.504Z,0.92
2023-01-21T03:07:02.143Z,0.96
2023-01-21T03:09:31.417Z,0.98
2023-01-21T03:12:22.598Z,0.95
2023-01-21T03:15:14.777Z,0.99
2023-01-21T03:17:47.583Z,0.98
2023-01-21T03:20:21.239Z,0.96
2023-01-21T03:22:54.783Z,1.00
2023-01-21T03:25:23.508Z,1.05
2023-01-21T03:27:53.181Z,1.06
2023-01-21T03:30:23.501Z,0.98
2023-01-21T03:32:53.548Z,1.03
2023-01-21T03:35:24.797Z,1.07
2023-01-21T03:37:59.544Z,1.06
2023-01-21T03:40:29.695Z,1.08
2023-01-21T03:42:57.596Z,1.08
2023-01-21T03:45:35.837Z,1.08
2023-01-21T03:48:13.390Z,1.12
2023-01-21T03:50:45.126Z,1.20
2023-01-21T03:53:14.586Z,1.27
2023-01-21T03:55:42.193Z,1.30
2023-01-21T03:58:09.894Z,1.33
2023-01-21T04:00:38.333Z,1.33
2023-01-21T04:03:06.263Z,1.36
2023-01-21T04:05:35.252Z,1.32
2023-01-21T04:08:03.282Z,1.33
2023-01-21T04:10:35.021Z,1.34
2023-01-21T04:13:02.733Z,1.23
2023-01-21T04:15:30.348Z,1.27
2023-01-21T04:17:59.093Z,1.23
2023-01-21T04:20:26.801Z,1.29
2023-01-21T04:22:54.388Z,1.25
2023-01-21T04:25:22.015Z,1.21
2023-01-21T04:27:50.964Z,1.20
2023-01-21T04:30:20.117Z,1.20
2023-01-21T04:32:47.936Z,1.17
2023-01-21T04:35:15.647Z,1.24
2023-01-21T04:37:43.173Z,1.30
2023-01-21T04:40:12.970Z,1.34
2023-01-21T04:42:41.285Z,1.33
2023-01-21T04:45:11.335Z,1.29
2023-01-21T04:47:41.892Z,1.30
2023-01-21T04:50:11.504Z,1.36
2023-01-21T04:52:39.897Z,1.41
2023-01-21T04:55:08.792Z,1.47
2023-01-21T04:57:36.391Z,1.42
2023-01-21T05:00:06.458Z,1.47
2023-01-21T05:02:36.105Z,1.47
2023-01-21T05:05:03.945Z,1.42
2023-01-21T05:07:31.519Z,1.39
2023-01-21T05:09:59.136Z,1.42
2023-01-21T05:12:27.340Z,1.43
2023-01-21T05:14:55.343Z,1.46
2023-01-21T05:17:22.914Z,1.44
2023-01-21T05:19:51.943Z,1.37
2023-01-21T05:22:19.830Z,1.36
2023-01-21T05:24:47.431Z,1.40
2023-01-21T05:27:15.842Z,1.38
2023-01-21T05:29:44.083Z,1.30
2023-01-21T05:32:11.645Z,1.31
2023-01-21T05:34:39.234Z,1.38
2023-01-21T05:37:08.167Z,1.42
2023-01-21T05:39:35.753Z,1.49
2023-01-21T05:42:03.332Z,1.51
2023-01-21T05:44:30.909Z,1.52
2023-01-21T05:46:58.496Z,1.56
2023-01-21T05:49:26.053Z,1.58
2023-01-21T05:51:53.609Z,1.56
2023-01-21T05:54:22.505Z,1.56
2023-01-21T05:56:50.071Z,1.52
2023-01-21T05:59:17.659Z,1.53
2023-01-21T06:01:45.243Z,1.55
2023-01-21T06:04:14.975Z,1.49
2023-01-21T06:06:42.569Z,1.48
2023-01-21T06:09:11.042Z,1.44
2023-01-21T06:11:39.947Z,1.47
2023-01-21T06:14:07.498Z,1.49
2023-01-21T06:16:35.101Z,1.50
2023-01-21T06:19:04.821Z,1.44
2023-01-21T06:21:32.469Z,1.45
2023-01-21T06:24:00.614Z,1.45
2023-01-21T06:26:28.230Z,1.43
2023-01-21T06:28:58.314Z,1.41
2023-01-21T06:31:25.996Z,1.40
2023-01-21T06:33:54.854Z,1.41
2023-01-21T06:36:23.451Z,1.37
2023-01-21T06:38:51.273Z,1.37
2023-01-21T06:41:19.886Z,1.42
2023-01-21T06:43:47.418Z,1.49
2023-01-21T06:46:16.943Z,1.53
2023-01-21T06:48:44.465Z,1.55
2023-01-21T06:51:12.179Z,1.52
2023-01-21T06:53:39.870Z,1.54
2023-01-21T06:56:08.091Z,1.52
2023-01-21T06:58:35.670Z,1.47
2023-01-21T07:01:03.338Z,1.41
2023-01-21T07:03:32.295Z,1.41
2023-01-21T07:06:00.014Z,1.42
2023-01-21T07:08:27.695Z,1.40
2023-01-21T07:10:55.377Z,1.43
2023-01-21T07:13:23.343Z,1.46
2023-01-21T07:15:51.493Z,1.44
2023-01-21T07:18:21.440Z,1.46
2023-01-21T07:20:50.446Z,1.52
2023-01-21T07:23:18.123Z,1.55
2023-01-21T07:25:46.394Z,1.42
2023-01-21T07:28:14.013Z,1.45
2023-01-21T07:30:42.167Z,1.49
2023-01-21T07:33:10.451Z,1.46
2023-01-21T07:35:38.182Z,1.40
2023-01-21T07:38:07.458Z,1.42
2023-01-21T07:40:35.100Z,1.48
2023-01-21T07:43:02.695Z,1.49
2023-01-21T07:45:33.030Z,1.45
2023-01-21T07:48:00.870Z,1.47
2023-01-21T07:50:28.848Z,1.51
2023-01-21T07:52:56.492Z,1.49
2023-01-21T07:55:25.456Z,1.44
2023-01-21T07:57:53.251Z,1.46
2023-01-21T08:00:22.729Z,1.48
2023-01-21T08:02:51.803Z,1.41
2023-01-21T08:05:19.706Z,1.40
2023-01-21T08:07:47.619Z,1.53
2023-01-21T08:10:16.044Z,1.57
2023-01-21T08:12:45.381Z,1.63
2023-01-21T08:15:13.708Z,1.61
2023-01-21T08:17:44.696Z,1.51
2023-01-21T08:20:13.256Z,1.44
2023-01-21T08:22:40.922Z,1.51
2023-01-21T08:25:09.316Z,1.50
2023-01-21T08:27:36.996Z,1.48
2023-01-21T08:30:07.361Z,1.35
2023-01-21T08:32:35.234Z,1.39
2023-01-21T08:35:03.119Z,1.46
2023-01-21T08:37:30.848Z,1.49
2023-01-21T08:39:58.644Z,1.46
2023-01-21T08:42:26.336Z,1.44
2023-01-21T08:44:54.078Z,1.42
2023-01-21T08:47:23.915Z,1.44
2023-01-21T08:49:51.851Z,1.46
2023-01-21T08:52:21.468Z,1.43
2023-01-21T08:54:50.790Z,1.44
2023-01-21T08:57:18.651Z,1.44
2023-01-21T08:59:46.501Z,1.43
2023-01-21T09:02:14.255Z,1.45
2023-01-21T09:04:43.302Z,1.44
2023-01-21T09:07:11.056Z,1.46
2023-01-21T09:09:39.031Z,1.43
2023-01-21T09:12:08.828Z,1.44
2023-01-21T09:14:36.877Z,1.44
2023-01-21T09:17:04.585Z,1.47
2023-01-21T09:19:32.247Z,1.50
2023-01-21T09:22:01.319Z,1.56
2023-01-21T09:24:29.131Z,1.52
2023-01-21T09:26:56.828Z,1.57
2023-01-21T09:29:25.085Z,1.64
2023-01-21T09:31:53.364Z,1.63
2023-01-21T09:34:20.990Z,1.70
2023-01-21T09:36:48.612Z,1.76
2023-01-21T09:39:18.849Z,1.69
2023-01-21T09:41:50.908Z,1.66
2023-01-21T09:44:25.519Z,1.66
2023-01-21T09:46:59.400Z,1.65
2023-01-21T09:49:31.583Z,1.69
2023-01-21T09:52:07.452Z,1.68
2023-01-21T09:54:38.066Z,1.65
2023-01-21T09:57:31.420Z,1.69
2023-01-21T10:00:20.172Z,1.72
2023-01-21T10:02:58.906Z,1.79
2023-01-21T10:06:03.533Z,1.80
2023-01-21T10:08:38.401Z,1.70
2023-01-21T10:11:24.820Z,1.67
2023-01-21T10:14:13.785Z,1.75
2023-01-21T10:16:55.054Z,1.73
2023-01-21T10:19:29.119Z,1.74
2023-01-21T10:22:03.447Z,1.78
2023-01-21T10:24:38.672Z,1.79
2023-01-21T10:27:15.852Z,1.90
2023-01-21T10:29:44.523Z,1.94
2023-01-21T10:32:18.174Z,1.96
2023-01-21T10:34:50.960Z,1.96
2023-01-21T10:37:26.862Z,2.00
2023-01-21T10:40:02.910Z,2.00
2023-01-21T10:42:51.597Z,2.08
2023-01-21T10:45:33.070Z,2.05
2023-01-21T10:48:06.727Z,2.06
2023-01-21T10:50:43.860Z,2.09
2023-01-21T10:53:19.999Z,2.10
2023-01-21T10:56:01.610Z,2.12
2023-01-21T10:58:35.925Z,2.16
2023-01-21T11:01:07.837Z,2.16
2023-01-21T11:03:41.127Z,2.22
2023-01-21T11:06:12.436Z,2.28
2023-01-21T11:08:43.824Z,2.24
2023-01-21T11:11:12.370Z,2.23
2023-01-21T11:13:41.792Z,2.26
2023-01-21T11:16:09.676Z,2.32
2023-01-21T11:18:39.523Z,2.31
2023-01-21T11:21:19.468Z,2.31
2023-01-21T11:23:55.153Z,2.30
2023-01-21T11:26:27.415Z,2.34
2023-01-21T11:29:12.706Z,2.43
2023-01-21T11:31:41.542Z,2.40
2023-01-21T11:34:14.979Z,2.43
2023-01-21T11:36:58.544Z,2.32
2023-01-21T11:39:27.575Z,2.37
2023-01-21T11:41:57.900Z,2.41
2023-01-21T11:44:26.767Z,2.32
2023-01-21T11:46:54.540Z,2.30
2023-01-21T11:49:33.496Z,2.32
2023-01-21T11:52:16.075Z,2.36
2023-01-21T11:54:44.478Z,2.37
2023-01-21T11:57:34.288Z,2.36
2023-01-21T12:00:20.599Z,2.38
2023-01-21T12:02:52.790Z,2.41
2023-01-21T12:05:29.306Z,2.27
2023-01-21T12:07:57.476Z,2.28
2023-01-21T12:10:31.535Z,2.33
2023-01-21T12:13:16.165Z,2.42
2023-01-21T12:15:56.459Z,2.46
2023-01-21T12:18:38.775Z,2.43
2023-01-21T12:21:11.213Z,2.52
2023-01-21T12:23:52.727Z,2.60
2023-01-21T12:26:35.294Z,2.69
2023-01-21T12:29:29.047Z,2.62
2023-01-21T12:32:02.726Z,2.62
2023-01-21T12:34:36.122Z,2.61
2023-01-21T12:37:11.334Z,2.56
2023-01-21T12:39:39.206Z,2.63
2023-01-21T12:42:12.408Z,2.67
2023-01-21T12:44:46.419Z,2.66
2023-01-21T12:47:27.026Z,2.65
2023-01-21T12:50:05.192Z,2.63
2023-01-21T12:52:41.991Z,2.72
2023-01-21T12:55:18.875Z,2.74
2023-01-21T12:57:53.406Z,2.84
2023-01-21T13:00:24.473Z,2.80
2023-01-21T13:03:10.736Z,2.98
2023-01-21T13:05:45.163Z,3.20
2023-01-21T13:08:32.218Z,3.24
2023-01-21T13:11:06.876Z,3.38
2023-01-21T13:13:39.268Z,3.30
2023-01-21T13:16:10.058Z,3.26
2023-01-21T13:18:42.444Z,3.23
2023-01-21T13:21:26.380Z,3.14
2023-01-21T13:24:02.891Z,3.22
2023-01-21T13:26:38.299Z,3.10
2023-01-21T13:29:13.028Z,3.08
2023-01-21T13:31:48.455Z,3.08
2023-01-21T13:34:27.689Z,3.09
2023-01-21T13:37:10.496Z,3.27
2023-01-21T13:39:49.463Z,3.41
2023-01-21T13:42:30.036Z,3.48
2023-01-21T13:45:17.689Z,3.47
2023-01-21T13:48:16.063Z,3.47
2023-01-21T13:50:58.186Z,3.26
2023-01-21T13:53:49.979Z,3.07
2023-01-21T13:56:31.752Z,3.11
2023-01-21T13:59:06.013Z,3.09
2023-01-21T14:01:44.084Z,3.04
2023-01-21T14:04:16.157Z,3.08
2023-01-21T14:06:52.937Z,3.03
2023-01-21T14:09:24.771Z,3.03
2023-01-21T14:11:59.743Z,3.01
2023-01-21T14:14:44.418Z,2.96
2023-01-21T14:17:42.509Z,2.93
2023-01-21T14:20:34.601Z,2.95
2023-01-21T14:23:27.493Z,2.97
2023-01-21T14:26:12.661Z,2.98
2023-01-21T14:28:52.649Z,3.02
2023-01-21T14:31:25.396Z,2.96
2023-01-21T14:33:58.491Z,2.97
2023-01-21T14:36:37.741Z,3.00
2023-01-21T14:39:15.939Z,3.02
2023-01-21T14:42:01.948Z,2.95
2023-01-21T14:45:03.083Z,2.90
2023-01-21T14:47:53.195Z,2.85
2023-01-21T14:50:47.206Z,2.86
2023-01-21T14:53:21.732Z,2.89
2023-01-21T14:56:10.643Z,2.79
2023-01-21T14:58:39.459Z,2.82
2023-01-21T15:01:07.909Z,2.79
2023-01-21T15:03:48.717Z,2.81
2023-01-21T15:06:21.230Z,2.75
2023-01-21T15:08:52.385Z,2.77
2023-01-21T15:11:24.296Z,2.76
2023-01-21T15:14:07.410Z,2.77
2023-01-21T15:16:36.980Z,2.77
2023-01-21T15:19:24.964Z,2.80
2023-01-21T15:22:18.467Z,2.77
2023-01-21T15:25:19.691Z,2.71
2023-01-21T15:28:36.713Z,2.60
2023-01-21T15:31:08.562Z,2.52
2023-01-21T15:33:58.076Z,2.52
2023-01-21T15:36:28.611Z,2.57
2023-01-21T15:39:02.332Z,2.57
2023-01-21T15:41:44.579Z,2.58
2023-01-21T15:44:32.981Z,2.49
2023-01-21T15:47:13.979Z,2.40
2023-01-21T15:49:56.793Z,2.46
2023-01-21T15:52:36.795Z,2.50
2023-01-21T15:55:26.557Z,2.42
2023-01-21T15:58:06.750Z,2.28
2023-01-21T16:00:38.877Z,2.33
2023-01-21T16:03:21.026Z,2.44
2023-01-21T16:05:58.347Z,2.58
2023-01-21T16:08:40.827Z,2.60
2023-01-21T16:11:31.216Z,2.64
2023-01-21T16:14:14.356Z,2.66
2023-01-21T16:16:53.499Z,2.64
2023-01-21T16:19:27.519Z,2.62
2023-01-21T16:21:59.572Z,2.57
2023-01-21T16:24:29.655Z,2.49
2023-01-21T16:27:17.400Z,2.33
2023-01-21T16:29:45.072Z,2.30
2023-01-21T16:32:17.646Z,2.29
2023-01-21T16:34:47.517Z,2.33
2023-01-21T16:37:16.865Z,2.33
2023-01-21T16:39:45.254Z,2.36
2023-01-21T16:42:25.552Z,2.41
2023-01-21T16:44:53.901Z,2.35
2023-01-21T16:47:25.747Z,2.32
2023-01-21T16:49:54.897Z,2.33
2023-01-21T16:52:24.397Z,2.32
2023-01-21T16:54:54.020Z,2.24
2023-01-21T16:57:25.758Z,2.28
2023-01-21T16:59:57.873Z,2.27
2023-01-21T17:02:30.690Z,2.24
2023-01-21T17:05:02.139Z,2.23
2023-01-21T17:07:33.443Z,2.29
2023-01-21T17:10:05.468Z,2.37
2023-01-21T17:12:36.235Z,2.34
2023-01-21T17:15:15.420Z,2.36
2023-01-21T17:17:43.433Z,2.39
2023-01-21T17:20:34.892Z,2.34
2023-01-21T17:23:04.754Z,2.35
2023-01-21T17:25:32.618Z,2.30
2023-01-21T17:28:00.233Z,2.38
2023-01-21T17:30:31.434Z,2.43
2023-01-21T17:33:00.888Z,2.46
2023-01-21T17:35:32.013Z,2.45
2023-01-21T17:38:02.754Z,2.40
2023-01-21T17:40:33.288Z,2.40
2023-01-21T17:43:11.859Z,2.36
2023-01-21T17:45:45.313Z,2.24
2023-01-21T17:48:23.270Z,2.28
2023-01-21T17:50:51.149Z,2.22
2023-01-21T17:53:23.428Z,2.24
2023-01-21T17:55:58.525Z,2.27
2023-01-21T17:58:51.827Z,2.27
2023-01-21T18:01:21.291Z,2.28
2023-01-21T18:03:49.035Z,2.30
2023-01-21T18:06:20.032Z,2.25
2023-01-21T18:08:50.820Z,2.26
2023-01-21T18:11:18.602Z,2.20
2023-01-21T18:13:46.218Z,2.20
2023-01-21T18:16:14.113Z,2.26
2023-01-21T18:18:42.022Z,2.28
2023-01-21T18:21:18.153Z,2.27
2023-01-21T18:23:45.840Z,2.20
2023-01-21T18:26:20.968Z,2.23
2023-01-21T18:28:48.537Z,2.21
2023-01-21T18:31:16.365Z,2.21
2023-01-21T18:33:44.126Z,2.22
2023-01-21T18:36:12.185Z,2.23
2023-01-21T18:38:39.844Z,2.19
2023-01-21T18:41:08.802Z,2.27
2023-01-21T18:43:37.784Z,2.32
2023-01-21T18:46:10.184Z,2.33
2023-01-21T18:48:37.902Z,2.29
2023-01-21T18:51:05.813Z,2.37
2023-01-21T18:53:34.626Z,2.38
2023-01-21T18:56:06.104Z,2.30
2023-01-21T18:58:33.933Z,2.24
2023-01-21T19:01:13.921Z,2.29
2023-01-21T19:03:48.670Z,2.37
2023-01-21T19:06:17.487Z,2.32
2023-01-21T19:08:48.397Z,2.34
2023-01-21T19:11:17.910Z,2.37
2023-01-21T19:13:45.634Z,2.29
2023-01-21T19:16:18.115Z,2.33
2023-01-21T19:18:46.504Z,2.30
2023-01-21T19:21:14.438Z,2.26
2023-01-21T19:23:42.262Z,2.32
2023-01-21T19:26:13.919Z,2.35
2023-01-21T19:28:42.063Z,2.38
2023-01-21T19:31:09.845Z,2.40
2023-01-21T19:33:40.826Z,2.35
2023-01-21T19:36:14.925Z,2.30
2023-01-21T19:38:44.123Z,2.29
2023-01-21T19:41:11.814Z,2.28
2023-01-21T19:43:39.595Z,2.34
2023-01-21T19:46:10.980Z,2.31
2023-01-21T19:48:40.795Z,2.25
2023-01-21T19:51:09.010Z,2.19
2023-01-21T19:53:37.141Z,2.23
2023-01-21T19:56:06.260Z,2.27
2023-01-21T19:58:34.204Z,2.28
2023-01-21T20:01:02.183Z,2.23
2023-01-21T20:03:30.661Z,2.22
2023-01-21T20:06:03.020Z,2.25
2023-01-21T20:08:32.127Z,2.19
2023-01-21T20:10:59.903Z,2.23
2023-01-21T20:13:31.337Z,2.27
2023-01-21T20:16:03.609Z,2.34
2023-01-21T20:18:32.578Z,2.40
2023-01-21T20:21:01.716Z,2.34
2023-01-21T20:23:32.508Z,2.33
2023-01-21T20:26:01.141Z,2.27
2023-01-21T20:28:36.349Z,2.31
2023-01-21T20:31:06.951Z,2.22
2023-01-21T20:33:36.197Z,2.27
2023-01-21T20:36:17.508Z,2.29
2023-01-21T20:38:46.347Z,2.27
2023-01-21T20:41:14.222Z,2.16
2023-01-21T20:43:42.222Z,2.23
2023-01-21T20:46:13.497Z,2.12
2023-01-21T20:48:43.450Z,2.11
2023-01-21T20:51:12.924Z,2.06
2023-01-21T20:53:41.083Z,2.13
2023-01-21T20:56:18.928Z,2.23
2023-01-21T20:58:47.811Z,2.30
2023-01-21T21:01:17.664Z,2.27
2023-01-21T21:03:45.650Z,2.34
2023-01-21T21:06:15.595Z,2.28
2023-01-21T21:08:43.918Z,2.29
2023-01-21T21:11:11.863Z,2.28
2023-01-21T21:13:39.500Z,2.26
2023-01-21T21:16:17.849Z,2.26
2023-01-21T21:18:45.468Z,2.25
2023-01-21T21:21:14.925Z,2.18
2023-01-21T21:23:46.312Z,2.16
2023-01-21T21:26:18.290Z,2.25
2023-01-21T21:28:46.912Z,2.27
2023-01-21T21:31:15.848Z,2.28
2023-01-21T21:33:44.011Z,2.29
2023-01-21T21:36:15.931Z,2.34
2023-01-21T21:38:44.314Z,2.30
2023-01-21T21:41:36.577Z,2.32
2023-01-21T21:44:05.665Z,2.16
2023-01-21T21:46:51.466Z,2.18
2023-01-21T21:49:19.405Z,2.21
2023-01-21T21:51:48.779Z,2.21
2023-01-21T21:54:18.162Z,2.17
2023-01-21T21:56:46.101Z,2.12
2023-01-21T21:59:14.621Z,2.22
2023-01-21T22:01:43.240Z,2.22
2023-01-21T22:04:11.230Z,2.23
2023-01-21T22:06:39.770Z,2.14
2023-01-21T22:09:11.098Z,2.25
2023-01-21T22:11:38.925Z,2.25
2023-01-21T22:14:06.649Z,2.20
2023-01-21T22:16:34.859Z,2.45
2023-01-21T22:19:02.644Z,2.62
2023-01-21T22:21:32.821Z,2.35
2023-01-21T22:24:00.862Z,2.25
2023-01-21T22:26:30.511Z,2.18
2023-01-21T22:28:58.342Z,2.24
2023-01-21T22:31:28.821Z,2.29
2023-01-21T22:33:57.208Z,2.29
2023-01-21T22:36:27.250Z,2.25
2023-01-21T22:38:55.746Z,2.19
2023-01-21T22:41:24.996Z,2.13
2023-01-21T22:43:54.304Z,2.03
2023-01-21T22:46:24.291Z,2.04
2023-01-21T22:48:52.156Z,2.03
2023-01-21T22:51:21.323Z,2.02
2023-01-21T22:53:49.764Z,2.08
2023-01-21T22:56:19.232Z,2.04
2023-01-21T22:58:47.460Z,2.01
2023-01-21T23:01:25.095Z,2.05
2023-01-21T23:03:53.553Z,2.07
2023-01-21T23:06:21.873Z,2.05
2023-01-21T23:08:49.916Z,2.08
2023-01-21T23:11:19.580Z,2.07
2023-01-21T23:13:50.026Z,2.00
2023-01-21T23:16:20.898Z,1.97
2023-01-21T23:18:50.707Z,1.96
2023-01-21T23:21:20.767Z,2.00
2023-01-21T23:23:48.512Z,2.04
2023-01-21T23:26:18.984Z,2.01
2023-01-21T23:28:47.155Z,2.04
2023-01-21T23:31:17.415Z,1.99
2023-01-21T23:33:45.314Z,1.94
2023-01-21T23:36:14.953Z,1.94
2023-01-21T23:38:42.981Z,1.90
2023-01-21T23:41:12.040Z,1.91
2023-01-21T23:43:39.845Z,1.90
2023-01-21T23:46:08.647Z,1.88
2023-01-21T23:48:36.416Z,1.75
2023-01-21T23:51:05.402Z,1.80
2023-01-21T23:53:35.519Z,1.79
2023-01-21T23:56:08.344Z,1.83
2023-01-21T23:58:36.023Z,1.88
